Time;durP1;ratioP1;P1;durP2;ratioP2;P2;SDS_P1;SDS_P2;PMS_P1;PMS_P2;Temp;Humidity;BMP_temperature;BMP_pressure;BME280_temperature;BME280_humidity;BME280_pressure;Samples;Min_cycle;Max_cycle;Signal;HPM_P1;HPM_P2
2024/01/17 00:01:58;;;;;;;12.77;6.80;;;;;;;;;;5076945;28;20203;-86
2024/01/17 00:04:30;;;;;;;7.03;6.23;;;;;;;;;;5081737;28;20206;-85
2024/01/17 00:07:07;;;;;;;15.97;8.47;;;;;;;;;;5087632;28;20207;-85
2024/01/17 00:09:37;;;;;;;19.37;8.47;;;;;;;;;;5082585;28;20367;-85
2024/01/17 00:12:10;;;;;;;17.97;8.27;;;;;;;;;;5083837;28;20659;-86
2024/01/17 00:14:47;;;;;;;23.53;8.53;;;;;;;;;;5071151;28;20242;-85
2024/01/17 00:17:17;;;;;;;18.00;7.03;;;;;;;;;;5055807;28;20238;-85
2024/01/17 00:19:47;;;;;;;18.10;9.93;;;;;;;;;;5055184;28;20286;-85
2024/01/17 00:22:18;;;;;;;22.50;10.17;;;;;;;;;;5053439;28;20226;-85
2024/01/17 00:24:49;;;;;;;28.57;12.73;;;;;;;;;;5053826;28;20204;-86
2024/01/17 00:27:23;;;;;;;25.63;10.67;;;;;;;;;;5055991;28;20195;-87
2024/01/17 00:29:56;;;;;;;17.53;8.90;;;;;;;;;;5055461;28;20249;-86
2024/01/17 00:32:24;;;;;;;18.23;9.63;;;;;;;;;;5055662;28;20203;-85
2024/01/17 00:34:54;;;;;;;25.47;11.87;;;;;;;;;;5055123;28;20742;-86
2024/01/17 00:37:27;;;;;;;33.17;11.40;;;;;;;;;;5055544;28;20601;-86
2024/01/17 00:40:00;;;;;;;19.53;10.83;;;;;;;;;;5054178;28;20219;-85
2024/01/17 00:42:31;;;;;;;24.07;9.40;;;;;;;;;;5054711;28;20278;-85
2024/01/17 00:44:59;;;;;;;20.43;9.50;;;;;;;;;;5054970;28;20219;-86
2024/01/17 00:47:28;;;;;;;20.90;8.73;;;;;;;;;;5053558;28;20203;-86
2024/01/17 00:49:55;;;;;;;11.40;8.40;;;;;;;;;;5055154;28;20217;-86
2024/01/17 00:52:23;;;;;;;19.70;9.17;;;;;;;;;;5056949;28;20269;-86
2024/01/17 00:54:51;;;;;;;16.03;7.80;;;;;;;;;;5063357;28;20203;-86
2024/01/17 00:57:26;;;;;;;13.67;8.57;;;;;;;;;;5069225;28;20580;-86
2024/01/17 00:59:56;;;;;;;19.63;8.90;;;;;;;;;;5067453;28;20209;-85
2024/01/17 01:02:24;;;;;;;22.40;8.20;;;;;;;;;;5075497;28;20621;-86
2024/01/17 01:04:57;;;;;;;19.53;9.47;;;;;;;;;;5070194;28;20251;-86
2024/01/17 01:07:29;;;;;;;13.00;6.37;;;;;;;;;;5054491;28;20286;-85
2024/01/17 01:09:58;;;;;;;16.23;8.70;;;;;;;;;;5054091;28;20237;-87
2024/01/17 01:12:32;;;;;;;13.93;8.13;;;;;;;;;;5054134;28;20281;-86
2024/01/17 01:15:00;;;;;;;13.03;7.37;;;;;;;;;;5054704;28;20231;-85
2024/01/17 01:17:28;;;;;;;19.47;8.80;;;;;;;;;;5054254;28;20265;-86
2024/01/17 01:19:58;;;;;;;26.40;11.10;;;;;;;;;;5053931;28;20215;-85
2024/01/17 01:22:29;;;;;;;16.20;8.93;;;;;;;;;;5054431;28;20211;-85
2024/01/17 01:24:56;;;;;;;16.20;7.27;;;;;;;;;;5053432;28;20198;-86
2024/01/17 01:27:25;;;;;;;16.83;8.43;;;;;;;;;;5053147;28;20203;-86
2024/01/17 01:29:57;;;;;;;15.40;8.87;;;;;;;;;;5054650;28;20200;-86
2024/01/17 01:32:30;;;;;;;20.23;7.87;;;;;;;;;;5053739;28;20196;-86
2024/01/17 01:35:13;;;;;;;17.97;8.27;;;;;;;;;;5053938;28;20230;-86
2024/01/17 01:37:46;;;;;;;27.27;9.53;;;;;;;;;;5054280;28;20321;-86
2024/01/17 01:40:19;;;;;;;12.00;8.27;;;;;;;;;;5053548;28;20195;-86
2024/01/17 01:42:53;;;;;;;13.83;7.27;;;;;;;;;;5053560;28;20191;-86
2024/01/17 01:45:22;;;;;;;14.57;8.20;;;;;;;;;;5055848;28;20201;-86
2024/01/17 01:47:51;;;;;;;14.03;8.07;;;;;;;;;;5053881;28;20277;-85
2024/01/17 01:50:20;;;;;;;25.50;8.47;;;;;;;;;;5054060;28;20260;-86
2024/01/17 01:52:51;;;;;;;24.73;10.37;;;;;;;;;;5054117;28;20281;-86
2024/01/17 01:55:23;;;;;;;29.10;11.57;;;;;;;;;;5053808;28;20213;-85
2024/01/17 01:57:56;;;;;;;24.43;9.03;;;;;;;;;;5053633;28;20318;-86
2024/01/17 02:00:26;;;;;;;15.07;9.57;;;;;;;;;;5053065;28;20199;-85
2024/01/17 02:02:55;;;;;;;20.27;10.20;;;;;;;;;;5055119;28;20266;-86
2024/01/17 02:05:26;;;;;;;16.90;10.67;;;;;;;;;;5056368;28;20199;-86
2024/01/17 02:07:54;;;;;;;20.77;10.57;;;;;;;;;;5055260;28;20274;-85
2024/01/17 02:10:24;;;;;;;22.33;9.27;;;;;;;;;;5060173;28;20222;-85
2024/01/17 02:12:51;;;;;;;15.73;7.93;;;;;;;;;;5063579;28;20191;-85
2024/01/17 02:15:19;;;;;;;23.23;10.03;;;;;;;;;;5068473;28;20227;-86
2024/01/17 02:17:54;;;;;;;28.90;11.73;;;;;;;;;;5060355;28;20337;-85
2024/01/17 02:20:25;;;;;;;20.13;10.87;;;;;;;;;;5074920;28;20198;-85
2024/01/17 02:22:53;;;;;;;16.70;10.10;;;;;;;;;;5078056;28;20209;-86
2024/01/17 02:25:29;;;;;;;20.40;9.93;;;;;;;;;;5077812;28;20206;-86
2024/01/17 02:27:56;;;;;;;14.90;8.37;;;;;;;;;;5078965;28;20228;-85
2024/01/17 02:30:24;;;;;;;21.40;9.50;;;;;;;;;;5080230;28;20178;-86
2024/01/17 02:32:55;;;;;;;16.07;9.67;;;;;;;;;;5077734;28;20285;-87
2024/01/17 02:35:24;;;;;;;27.57;10.30;;;;;;;;;;5077965;28;20197;-86
2024/01/17 02:37:52;;;;;;;13.80;9.23;;;;;;;;;;5073992;28;20237;-86
2024/01/17 02:40:22;;;;;;;19.80;9.23;;;;;;;;;;5072995;28;20225;-85
2024/01/17 02:42:58;;;;;;;18.67;9.63;;;;;;;;;;5073668;28;20182;-85
2024/01/17 02:45:25;;;;;;;21.67;9.60;;;;;;;;;;5072647;28;20207;-85
2024/01/17 02:47:54;;;;;;;17.40;9.37;;;;;;;;;;5074362;28;20225;-85
2024/01/17 02:50:23;;;;;;;16.33;9.67;;;;;;;;;;5072348;28;20217;-85
2024/01/17 02:52:52;;;;;;;22.43;8.60;;;;;;;;;;5072608;28;20276;-86
2024/01/17 02:55:22;;;;;;;21.47;9.60;;;;;;;;;;5073297;28;20203;-86
2024/01/17 02:57:52;;;;;;;20.67;8.73;;;;;;;;;;5072979;28;20222;-87
2024/01/17 03:00:20;;;;;;;20.30;9.80;;;;;;;;;;5073011;28;20202;-85
2024/01/17 03:02:48;;;;;;;18.10;9.67;;;;;;;;;;5065795;28;20207;-85
2024/01/17 03:05:15;;;;;;;21.03;9.23;;;;;;;;;;5053532;28;20195;-86
2024/01/17 03:07:43;;;;;;;32.37;10.37;;;;;;;;;;5052720;28;20234;-86
2024/01/17 03:10:12;;;;;;;20.07;8.60;;;;;;;;;;5053918;28;20213;-85
2024/01/17 03:12:41;;;;;;;26.10;10.30;;;;;;;;;;5059964;28;20240;-86
2024/01/17 03:15:10;;;;;;;14.20;8.43;;;;;;;;;;5072281;28;20235;-86
2024/01/17 03:17:42;;;;;;;19.47;9.47;;;;;;;;;;5071976;28;20202;-85
2024/01/17 03:20:15;;;;;;;20.43;10.17;;;;;;;;;;5072815;28;20253;-86
2024/01/17 03:22:43;;;;;;;19.57;10.03;;;;;;;;;;5074068;28;20597;-86
2024/01/17 03:25:11;;;;;;;17.03;9.53;;;;;;;;;;5076752;28;20256;-85
2024/01/17 03:27:41;;;;;;;14.17;8.47;;;;;;;;;;5076485;28;20203;-87
2024/01/17 03:30:12;;;;;;;22.03;10.43;;;;;;;;;;5081128;28;20222;-87
2024/01/17 03:32:51;;;;;;;;;;;;;;;;;;;;;
2024/01/17 03:38:09;;;;;;;18.50;9.70;;;;;;;;;;5055603;28;20223;-86
2024/01/17 03:40:40;;;;;;;18.33;9.03;;;;;;;;;;5056968;28;20191;-86
2024/01/17 03:43:11;;;;;;;13.13;9.03;;;;;;;;;;5056591;28;20779;-86
2024/01/17 03:45:59;;;;;;;14.00;8.70;;;;;;;;;;5079124;28;20255;-86
2024/01/17 03:48:39;;;;;;;18.90;9.63;;;;;;;;;;5096008;28;20202;-85
2024/01/17 03:51:11;;;;;;;15.57;8.27;;;;;;;;;;5098164;28;20213;-87
2024/01/17 03:56:44;;;;;;;13.60;9.43;;;;;;;;;;5101655;28;20236;-85
2024/01/17 03:59:14;;;;;;;22.07;11.23;;;;;;;;;;5101588;28;20260;-86
2024/01/17 04:01:53;;;;;;;24.97;14.00;;;;;;;;;;5096656;28;20198;-86
2024/01/17 04:04:21;;;;;;;23.60;11.27;;;;;;;;;;5096185;28;20201;-86
2024/01/17 04:06:53;;;;;;;18.90;10.33;;;;;;;;;;5107458;28;20213;-85
2024/01/17 04:09:24;;;;;;;27.47;10.53;;;;;;;;;;5108612;28;20308;-86
2024/01/17 04:11:52;;;;;;;18.43;10.47;;;;;;;;;;5098420;28;20217;-85
2024/01/17 04:14:20;;;;;;;18.40;12.10;;;;;;;;;;5105569;28;20217;-85
2024/01/17 04:16:54;;;;;;;24.37;11.67;;;;;;;;;;5099376;28;20281;-86
2024/01/17 04:19:22;;;;;;;22.23;11.87;;;;;;;;;;5101036;28;20317;-86
2024/01/17 04:21:50;;;;;;;27.25;15.30;;;;;;;;;;5098507;28;20439;-86
2024/01/17 04:24:21;;;;;;;23.43;10.77;;;;;;;;;;5105531;28;20205;-86
2024/01/17 04:26:54;;;;;;;18.23;9.77;;;;;;;;;;5101973;28;20553;-85
2024/01/17 04:29:23;;;;;;;22.03;9.53;;;;;;;;;;5105673;28;20201;-86
2024/01/17 04:32:00;;;;;;;24.23;11.77;;;;;;;;;;5107863;28;20629;-85
2024/01/17 04:34:36;;;;;;;21.67;10.63;;;;;;;;;;5108429;28;20178;-86
2024/01/17 04:37:07;;;;;;;20.47;11.30;;;;;;;;;;5115894;28;20231;-86
2024/01/17 04:39:38;;;;;;;15.17;9.70;;;;;;;;;;5102877;28;20233;-86
2024/01/17 04:42:06;;;;;;;16.73;9.70;;;;;;;;;;5096358;28;20207;-85
2024/01/17 04:44:41;;;;;;;12.97;8.57;;;;;;;;;;5099596;28;20441;-86
2024/01/17 04:47:13;;;;;;;21.80;9.40;;;;;;;;;;5095311;28;20200;-85
2024/01/17 04:49:43;;;;;;;18.70;11.70;;;;;;;;;;5096894;28;20281;-86
2024/01/17 04:52:15;;;;;;;15.93;9.40;;;;;;;;;;5095300;28;20280;-86
2024/01/17 04:54:43;;;;;;;24.40;14.52;;;;;;;;;;5095139;28;20440;-85
2024/01/17 04:57:12;;;;;;;16.57;11.07;;;;;;;;;;5098600;28;20202;-85
2024/01/17 04:59:40;;;;;;;22.53;11.73;;;;;;;;;;5095922;28;20312;-85
2024/01/17 05:02:12;;;;;;;23.83;12.97;;;;;;;;;;5096971;28;20224;-86
2024/01/17 05:04:45;;;;;;;52.97;18.00;;;;;;;;;;5105689;28;20205;-86
2024/01/17 05:07:12;;;;;;;12.57;8.43;;;;;;;;;;5112013;28;20223;-85
2024/01/17 05:09:40;;;;;;;27.60;11.87;;;;;;;;;;5113638;28;20209;-86
2024/01/17 05:12:08;;;;;;;17.87;11.13;;;;;;;;;;5115854;28;20196;-87
2024/01/17 05:14:36;;;;;;;16.97;8.77;;;;;;;;;;5107701;28;20230;-85
2024/01/17 05:17:15;;;;;;;21.03;10.83;;;;;;;;;;5096877;28;20221;-87
2024/01/17 05:20:07;;;;;;;17.23;9.00;;;;;;;;;;5096810;28;20320;-85
2024/01/17 05:22:52;;;;;;;20.47;10.80;;;;;;;;;;5095711;28;20213;-85
2024/01/17 05:28:28;;;;;;;17.60;8.83;;;;;;;;;;5033023;28;20282;-85
2024/01/17 05:30:56;;;;;;;30.60;11.60;;;;;;;;;;5093929;28;20225;-87
2024/01/17 05:33:26;;;;;;;18.13;10.33;;;;;;;;;;5094833;28;20204;-84
2024/01/17 05:35:58;;;;;;;27.63;15.20;;;;;;;;;;5094776;28;20201;-86
2024/01/17 05:38:32;;;;;;;29.63;17.10;;;;;;;;;;5095152;28;20228;-86
2024/01/17 05:41:09;;;;;;;30.57;16.53;;;;;;;;;;5095239;28;20200;-86
2024/01/17 05:43:39;;;;;;;23.50;11.50;;;;;;;;;;5094251;28;20213;-86
2024/01/17 05:46:10;;;;;;;19.07;11.53;;;;;;;;;;5094474;28;20194;-86
2024/01/17 05:48:40;;;;;;;33.33;15.45;;;;;;;;;;5076914;28;20449;-86
2024/01/17 05:51:12;;;;;;;28.23;15.37;;;;;;;;;;5056561;28;20198;-86
2024/01/17 05:53:41;;;;;;;24.60;13.17;;;;;;;;;;5075258;28;20202;-85
2024/01/17 05:56:31;;;;;;;30.33;13.17;;;;;;;;;;5075254;28;20199;-84
2024/01/17 05:59:00;;;;;;;23.10;12.33;;;;;;;;;;5078049;28;20226;-85
2024/01/17 06:01:30;;;;;;;28.57;14.50;;;;;;;;;;5074397;28;20202;-85
2024/01/17 06:03:58;;;;;;;33.37;13.17;;;;;;;;;;5074493;28;20223;-86
2024/01/17 06:06:34;;;;;;;32.73;15.73;;;;;;;;;;5073757;28;20369;-86
2024/01/17 06:09:02;;;;;;;28.17;13.87;;;;;;;;;;5090324;28;20201;-86
2024/01/17 06:11:31;;;;;;;32.30;13.17;;;;;;;;;;5092714;28;20191;-85
2024/01/17 06:14:04;;;;;;;38.00;16.00;;;;;;;;;;5110329;28;20297;-85
2024/01/17 06:16:36;;;;;;;32.63;15.80;;;;;;;;;;5111508;28;20197;-87
2024/01/17 06:19:06;;;;;;;35.27;15.03;;;;;;;;;;5086912;28;20254;-85
2024/01/17 06:21:34;;;;;;;41.37;17.00;;;;;;;;;;5080611;28;20543;-85
2024/01/17 06:24:03;;;;;;;36.90;17.60;;;;;;;;;;5086226;28;20240;-84
2024/01/17 06:26:34;;;;;;;32.63;18.57;;;;;;;;;;5090492;28;20198;-85
2024/01/17 06:29:03;;;;;;;53.83;21.30;;;;;;;;;;5090748;28;20273;-83
2024/01/17 06:31:30;;;;;;;52.97;22.87;;;;;;;;;;5088838;28;20214;-84
2024/01/17 06:33:58;;;;;;;63.17;22.93;;;;;;;;;;5088900;28;20225;-84
2024/01/17 06:36:28;;;;;;;55.33;21.17;;;;;;;;;;5089751;28;20190;-84
2024/01/17 06:39:00;;;;;;;38.97;20.37;;;;;;;;;;5091582;28;20226;-84
2024/01/17 06:41:31;;;;;;;34.97;19.63;;;;;;;;;;5091659;28;20271;-85
2024/01/17 06:44:09;;;;;;;49.77;22.10;;;;;;;;;;5105490;28;20198;-85
2024/01/17 06:46:40;;;;;;;43.73;18.00;;;;;;;;;;5113967;28;20198;-85
2024/01/17 06:49:11;;;;;;;37.83;17.13;;;;;;;;;;5114890;28;20183;-86
2024/01/17 06:51:41;;;;;;;38.37;17.20;;;;;;;;;;5114790;28;20220;-84
2024/01/17 06:54:18;;;;;;;41.80;16.97;;;;;;;;;;5106781;28;20636;-85
2024/01/17 06:56:54;;;;;;;28.37;14.03;;;;;;;;;;5110622;28;20193;-85
2024/01/17 06:59:21;;;;;;;25.97;14.83;;;;;;;;;;5116326;28;20521;-85
2024/01/17 07:01:50;;;;;;;27.13;14.30;;;;;;;;;;5117338;28;20191;-84
2024/01/17 07:04:18;;;;;;;33.43;15.73;;;;;;;;;;5116980;28;20284;-85
2024/01/17 07:06:51;;;;;;;36.47;16.70;;;;;;;;;;5115834;28;20205;-84
2024/01/17 07:09:32;;;;;;;39.17;18.40;;;;;;;;;;5114781;28;20213;-84
2024/01/17 07:12:00;;;;;;;35.70;15.57;;;;;;;;;;5116430;28;20296;-85
2024/01/17 07:14:30;;;;;;;30.73;16.00;;;;;;;;;;5133389;28;20225;-84
2024/01/17 07:17:03;;;;;;;29.97;16.57;;;;;;;;;;5130455;28;20201;-85
2024/01/17 07:19:30;;;;;;;30.63;16.73;;;;;;;;;;5103136;28;20213;-85
2024/01/17 07:21:58;;;;;;;37.13;18.70;;;;;;;;;;5109498;28;20249;-84
2024/01/17 07:24:27;;;;;;;31.07;15.93;;;;;;;;;;5111283;28;20202;-84
2024/01/17 07:27:08;;;;;;;36.87;17.73;;;;;;;;;;5111231;28;20274;-84
2024/01/17 07:29:37;;;;;;;39.80;17.07;;;;;;;;;;5113147;28;20178;-84
2024/01/17 07:32:06;;;;;;;39.03;16.37;;;;;;;;;;5110441;28;20662;-85
2024/01/17 07:34:33;;;;;;;36.77;17.10;;;;;;;;;;5108111;28;20198;-86
2024/01/17 07:37:03;;;;;;;42.37;19.17;;;;;;;;;;5107234;28;20253;-85
2024/01/17 07:39:31;;;;;;;34.00;16.00;;;;;;;;;;5103280;28;20229;-85
2024/01/17 07:41:59;;;;;;;40.73;16.23;;;;;;;;;;5104568;28;20202;-85
2024/01/17 07:44:29;;;;;;;24.37;14.00;;;;;;;;;;5103710;28;20205;-85
2024/01/17 07:46:57;;;;;;;25.93;13.20;;;;;;;;;;5106918;28;20222;-86
2024/01/17 07:49:29;;;;;;;25.23;13.80;;;;;;;;;;5103774;28;20277;-85
2024/01/17 07:51:56;;;;;;;25.80;13.70;;;;;;;;;;5104768;28;20194;-85
2024/01/17 07:54:23;;;;;;;21.10;12.87;;;;;;;;;;5106185;28;20202;-84
2024/01/17 07:56:55;;;;;;;24.30;11.67;;;;;;;;;;5111681;28;20701;-84
2024/01/17 07:59:25;;;;;;;26.80;13.17;;;;;;;;;;5114729;28;20239;-86
2024/01/17 08:01:52;;;;;;;23.50;12.77;;;;;;;;;;5131936;28;20232;-85
2024/01/17 08:04:20;;;;;;;22.77;12.23;;;;;;;;;;5131377;28;20221;-85
2024/01/17 08:06:48;;;;;;;23.50;14.47;;;;;;;;;;5123233;28;20228;-85
2024/01/17 08:09:21;;;;;;;30.40;14.67;;;;;;;;;;5119076;28;20236;-84
2024/01/17 08:11:49;;;;;;;31.20;15.53;;;;;;;;;;5130623;28;20221;-84
2024/01/17 08:14:19;;;;;;;34.53;16.77;;;;;;;;;;5126476;28;20290;-86
2024/01/17 08:16:47;;;;;;;33.60;16.90;;;;;;;;;;5130328;28;20217;-85
2024/01/17 08:19:16;;;;;;;29.70;16.10;;;;;;;;;;5127786;28;20231;-85
2024/01/17 08:21:44;;;;;;;32.00;15.73;;;;;;;;;;5121580;28;20247;-86
2024/01/17 08:24:12;;;;;;;33.70;16.93;;;;;;;;;;5120483;28;20221;-85
2024/01/17 08:26:39;;;;;;;42.57;17.27;;;;;;;;;;5127593;28;20270;-84
2024/01/17 08:29:07;;;;;;;39.47;18.83;;;;;;;;;;5117957;28;20244;-87
2024/01/17 08:31:39;;;;;;;37.03;18.27;;;;;;;;;;5115347;28;20252;-88
2024/01/17 08:34:06;;;;;;;36.00;17.07;;;;;;;;;;5113885;28;20236;-87
2024/01/17 08:36:34;;;;;;;43.43;16.63;;;;;;;;;;5115308;28;20298;-87
2024/01/17 08:39:05;;;;;;;30.83;15.97;;;;;;;;;;5115694;28;20221;-87
2024/01/17 08:41:33;;;;;;;36.07;17.67;;;;;;;;;;5114211;28;20217;-87
2024/01/17 08:44:00;;;;;;;30.93;15.37;;;;;;;;;;5114352;28;20579;-86
2024/01/17 08:46:29;;;;;;;42.20;15.57;;;;;;;;;;5115123;28;20612;-87
2024/01/17 08:48:59;;;;;;;27.23;13.13;;;;;;;;;;5094176;28;20221;-86
2024/01/17 08:51:27;;;;;;;21.90;12.03;;;;;;;;;;5092843;28;20782;-86
2024/01/17 08:53:55;;;;;;;29.57;15.90;;;;;;;;;;5095205;28;20609;-86
2024/01/17 08:56:22;;;;;;;22.23;11.07;;;;;;;;;;5093772;28;20222;-86
2024/01/17 08:58:50;;;;;;;18.50;10.10;;;;;;;;;;5094576;28;20309;-87
2024/01/17 09:01:17;;;;;;;19.50;10.67;;;;;;;;;;5094368;28;20257;-87
2024/01/17 09:03:45;;;;;;;19.00;9.77;;;;;;;;;;5094574;28;20232;-86
2024/01/17 09:06:14;;;;;;;21.23;10.13;;;;;;;;;;5094598;28;20317;-87
2024/01/17 09:08:49;;;;;;;20.07;10.63;;;;;;;;;;5096816;28;20232;-85
2024/01/17 09:11:16;;;;;;;22.60;10.20;;;;;;;;;;5098211;28;20213;-87
2024/01/17 09:13:43;;;;;;;44.67;11.90;;;;;;;;;;5117492;28;20241;-86
2024/01/17 09:16:10;;;;;;;25.47;12.00;;;;;;;;;;5124566;28;20221;-85
2024/01/17 09:18:38;;;;;;;19.77;10.23;;;;;;;;;;5114608;28;20224;-86
2024/01/17 09:21:06;;;;;;;23.40;11.17;;;;;;;;;;5114522;28;20233;-87
2024/01/17 09:23:36;;;;;;;27.00;12.27;;;;;;;;;;5114085;28;20298;-86
2024/01/17 09:26:03;;;;;;;31.93;14.43;;;;;;;;;;5114374;28;20638;-86
2024/01/17 09:28:30;;;;;;;20.53;11.97;;;;;;;;;;5113880;28;20222;-86
2024/01/17 09:30:56;;;;;;;25.00;12.57;;;;;;;;;;5116868;28;20221;-86
2024/01/17 09:33:24;;;;;;;26.87;12.30;;;;;;;;;;5113369;28;20222;-87
2024/01/17 09:35:54;;;;;;;22.70;12.77;;;;;;;;;;5113704;28;20670;-86
2024/01/17 09:38:22;;;;;;;29.83;13.83;;;;;;;;;;5113148;28;20323;-86
2024/01/17 09:40:51;;;;;;;31.83;15.17;;;;;;;;;;5113196;28;20241;-86
2024/01/17 09:43:19;;;;;;;33.90;14.00;;;;;;;;;;5112174;28;20364;-85
2024/01/17 09:45:54;;;;;;;33.00;15.63;;;;;;;;;;5115641;28;20245;-85
2024/01/17 09:48:24;;;;;;;30.30;14.10;;;;;;;;;;5100188;28;20259;-86
2024/01/17 09:50:52;;;;;;;27.23;14.40;;;;;;;;;;5100570;28;20342;-87
2024/01/17 09:53:27;;;;;;;34.73;13.73;;;;;;;;;;5104828;28;20228;-88
2024/01/17 09:55:58;;;;;;;25.73;14.47;;;;;;;;;;5107291;28;20224;-85
2024/01/17 09:58:26;;;;;;;22.90;13.60;;;;;;;;;;5110886;28;20248;-86
2024/01/17 10:00:52;;;;;;;28.63;14.83;;;;;;;;;;5106836;28;20786;-85
2024/01/17 10:03:21;;;;;;;24.87;13.20;;;;;;;;;;5098053;28;20225;-85
2024/01/17 10:05:49;;;;;;;25.03;13.03;;;;;;;;;;5096401;28;20226;-85
2024/01/17 10:08:17;;;;;;;25.93;14.57;;;;;;;;;;5102642;28;20315;-85
2024/01/17 10:10:44;;;;;;;30.90;16.13;;;;;;;;;;5115211;28;20193;-86
2024/01/17 10:13:14;;;;;;;24.13;14.37;;;;;;;;;;5114333;28;20303;-85
2024/01/17 10:15:42;;;;;;;30.70;14.00;;;;;;;;;;5113822;28;20286;-86
2024/01/17 10:18:10;;;;;;;39.90;16.00;;;;;;;;;;5114694;28;20197;-85
2024/01/17 10:20:40;;;;;;;26.63;15.13;;;;;;;;;;5117189;28;20225;-85
2024/01/17 10:23:09;;;;;;;31.50;15.53;;;;;;;;;;5116174;28;20201;-86
2024/01/17 10:25:40;;;;;;;35.87;15.30;;;;;;;;;;5119604;28;20713;-85
2024/01/17 10:28:08;;;;;;;25.47;15.00;;;;;;;;;;5122618;28;20219;-85
2024/01/17 10:30:38;;;;;;;23.27;13.87;;;;;;;;;;5121082;28;20189;-87
2024/01/17 10:33:10;;;;;;;26.77;16.77;;;;;;;;;;5121610;28;20581;-86
2024/01/17 10:35:39;;;;;;;26.30;15.90;;;;;;;;;;5118449;28;20189;-85
2024/01/17 10:38:08;;;;;;;40.70;16.87;;;;;;;;;;5118848;28;20195;-85
2024/01/17 10:40:40;;;;;;;34.33;18.73;;;;;;;;;;5119875;28;20217;-85
2024/01/17 10:43:09;;;;;;;33.13;17.63;;;;;;;;;;5118815;28;20207;-85
2024/01/17 10:45:39;;;;;;;35.67;18.73;;;;;;;;;;5118168;28;20204;-87
2024/01/17 10:48:07;;;;;;;30.00;16.73;;;;;;;;;;5118205;28;20201;-85
2024/01/17 10:50:34;;;;;;;40.60;19.17;;;;;;;;;;5118114;28;20208;-85
2024/01/17 10:53:08;;;;;;;34.83;18.27;;;;;;;;;;5118062;28;20197;-85
2024/01/17 10:55:36;;;;;;;39.80;17.57;;;;;;;;;;5118607;28;20189;-85
2024/01/17 10:58:06;;;;;;;38.47;17.93;;;;;;;;;;5119414;28;20204;-85
2024/01/17 11:00:34;;;;;;;32.20;17.70;;;;;;;;;;5119061;28;20232;-87
2024/01/17 11:03:09;;;;;;;37.73;17.70;;;;;;;;;;5120303;28;20228;-85
2024/01/17 11:05:48;;;;;;;32.90;17.10;;;;;;;;;;5120787;28;20192;-86
2024/01/17 11:08:23;;;;;;;35.33;18.03;;;;;;;;;;5120769;28;20391;-85
2024/01/17 11:10:52;;;;;;;27.37;15.77;;;;;;;;;;5118685;28;20284;-87
2024/01/17 11:13:22;;;;;;;33.60;17.80;;;;;;;;;;5119900;28;20206;-86
2024/01/17 11:15:50;;;;;;;29.93;15.10;;;;;;;;;;5118544;28;20290;-87
2024/01/17 11:18:21;;;;;;;30.20;14.93;;;;;;;;;;5124318;28;20193;-85
2024/01/17 11:20:49;;;;;;;25.03;14.73;;;;;;;;;;5121950;28;20227;-85
2024/01/17 11:23:24;;;;;;;37.13;17.07;;;;;;;;;;5134861;28;20201;-85
2024/01/17 11:25:54;;;;;;;35.27;18.70;;;;;;;;;;5136259;28;20181;-85
2024/01/17 11:28:25;;;;;;;48.40;20.90;;;;;;;;;;5126595;28;20303;-85
2024/01/17 11:31:10;;;;;;;36.97;20.13;;;;;;;;;;5119878;28;20208;-86
2024/01/17 11:33:40;;;;;;;36.10;19.50;;;;;;;;;;5117152;28;20205;-86
2024/01/17 11:36:07;;;;;;;33.00;17.57;;;;;;;;;;5116933;28;20196;-86
2024/01/17 11:38:35;;;;;;;37.57;16.90;;;;;;;;;;5116978;28;20247;-85
2024/01/17 11:41:05;;;;;;;43.63;19.40;;;;;;;;;;5117441;28;20221;-87
2024/01/17 11:43:35;;;;;;;35.70;18.33;;;;;;;;;;5116913;28;20186;-86
2024/01/17 11:46:04;;;;;;;31.87;16.50;;;;;;;;;;5115830;28;20201;-86
2024/01/17 11:48:32;;;;;;;31.70;17.57;;;;;;;;;;5116031;28;20281;-86
2024/01/17 11:51:15;;;;;;;28.27;14.77;;;;;;;;;;5118043;28;20177;-86
2024/01/17 11:53:42;;;;;;;31.33;16.77;;;;;;;;;;5137114;28;20196;-84
2024/01/17 11:56:13;;;;;;;31.60;16.10;;;;;;;;;;5119739;28;20737;-85
2024/01/17 11:58:42;;;;;;;29.37;15.20;;;;;;;;;;5101872;28;20221;-86
2024/01/17 12:01:11;;;;;;;28.63;16.40;;;;;;;;;;5135870;28;20277;-87
2024/01/17 12:03:39;;;;;;;30.70;16.97;;;;;;;;;;5135297;28;20208;-87
2024/01/17 12:06:10;;;;;;;33.13;16.20;;;;;;;;;;5138404;28;20174;-87
2024/01/17 12:08:38;;;;;;;34.97;16.40;;;;;;;;;;5131543;28;20221;-87
2024/01/17 12:11:06;;;;;;;41.03;20.03;;;;;;;;;;5118567;28;20193;-87
2024/01/17 12:13:33;;;;;;;27.40;14.83;;;;;;;;;;5124912;28;20216;-86
2024/01/17 12:16:01;;;;;;;35.73;15.47;;;;;;;;;;5117400;28;20208;-87
2024/01/17 12:18:31;;;;;;;32.80;15.83;;;;;;;;;;5098557;28;20200;-86
2024/01/17 12:21:02;;;;;;;31.20;15.37;;;;;;;;;;5116540;28;20225;-86
2024/01/17 12:23:32;;;;;;;36.87;15.50;;;;;;;;;;5115431;28;20193;-86
2024/01/17 12:26:03;;;;;;;26.90;14.67;;;;;;;;;;5117070;28;20231;-86
2024/01/17 12:28:30;;;;;;;31.13;16.67;;;;;;;;;;5115581;28;20201;-86
2024/01/17 12:31:02;;;;;;;31.77;14.80;;;;;;;;;;5116161;28;20199;-87
2024/01/17 12:33:30;;;;;;;27.13;15.23;;;;;;;;;;5117076;28;20197;-86
2024/01/17 12:36:00;;;;;;;30.27;15.33;;;;;;;;;;5116084;28;20217;-86
2024/01/17 12:38:28;;;;;;;23.57;14.60;;;;;;;;;;5116915;28;20274;-86
2024/01/17 12:40:57;;;;;;;27.33;14.40;;;;;;;;;;5117047;28;20225;-86
2024/01/17 12:43:25;;;;;;;24.63;13.23;;;;;;;;;;5115997;28;20193;-85
2024/01/17 12:45:52;;;;;;;29.40;13.67;;;;;;;;;;5115563;28;20270;-86
2024/01/17 12:48:22;;;;;;;27.57;14.80;;;;;;;;;;5115727;28;20663;-86
2024/01/17 12:50:51;;;;;;;24.97;14.20;;;;;;;;;;5115265;28;20232;-86
2024/01/17 12:53:25;;;;;;;23.40;13.37;;;;;;;;;;5114058;28;20200;-87
2024/01/17 12:55:52;;;;;;;29.93;14.50;;;;;;;;;;5113587;28;20190;-87
2024/01/17 12:58:26;;;;;;;33.27;15.93;;;;;;;;;;5116098;28;20194;-86
2024/01/17 13:00:57;;;;;;;24.47;14.33;;;;;;;;;;5115450;28;20225;-85
2024/01/17 13:03:25;;;;;;;22.87;13.30;;;;;;;;;;5115094;28;20215;-85
2024/01/17 13:06:03;;;;;;;18.80;10.30;;;;;;;;;;5115657;28;20201;-86
2024/01/17 13:08:30;;;;;;;31.93;15.00;;;;;;;;;;5115596;28;20247;-85
2024/01/17 13:10:58;;;;;;;29.03;14.20;;;;;;;;;;5115224;28;20193;-85
2024/01/17 13:13:28;;;;;;;18.20;11.27;;;;;;;;;;5115097;28;20265;-85
2024/01/17 13:15:56;;;;;;;24.60;13.17;;;;;;;;;;5114911;28;20260;-87
2024/01/17 13:18:28;;;;;;;22.20;12.57;;;;;;;;;;5114475;28;20287;-86
2024/01/17 13:21:18;;;;;;;24.93;11.23;;;;;;;;;;5114102;28;20700;-86
2024/01/17 13:23:46;;;;;;;20.07;11.07;;;;;;;;;;5115617;28;20204;-86
2024/01/17 13:26:15;;;;;;;19.67;10.47;;;;;;;;;;5116102;28;20244;-84
2024/01/17 13:28:44;;;;;;;15.70;10.30;;;;;;;;;;5114428;28;20201;-87
2024/01/17 13:31:14;;;;;;;15.70;10.23;;;;;;;;;;5115046;28;20197;-88
2024/01/17 13:33:45;;;;;;;22.17;11.60;;;;;;;;;;5115176;28;20200;-86
2024/01/17 13:36:14;;;;;;;23.80;12.80;;;;;;;;;;5113486;28;20284;-86
2024/01/17 13:38:41;;;;;;;18.87;11.00;;;;;;;;;;5115764;28;20251;-85
2024/01/17 13:41:10;;;;;;;22.37;11.23;;;;;;;;;;5116426;28;20232;-86
2024/01/17 13:43:38;;;;;;;23.37;12.60;;;;;;;;;;5116651;28;20274;-85
2024/01/17 13:46:11;;;;;;;28.07;14.43;;;;;;;;;;5124181;28;20238;-86
2024/01/17 13:48:38;;;;;;;32.47;13.87;;;;;;;;;;5131911;28;20203;-85
2024/01/17 13:51:12;;;;;;;26.43;13.70;;;;;;;;;;5132582;28;20246;-86
2024/01/17 13:53:53;;;;;;;34.23;14.23;;;;;;;;;;5133325;28;20221;-85
2024/01/17 13:56:20;;;;;;;29.93;15.87;;;;;;;;;;5134113;28;20192;-86
2024/01/17 13:58:52;;;;;;;23.10;12.43;;;;;;;;;;5126363;28;20205;-86
2024/01/17 14:01:23;;;;;;;24.63;13.63;;;;;;;;;;5128050;28;20216;-84
2024/01/17 14:03:52;;;;;;;28.80;15.07;;;;;;;;;;5128094;28;20202;-85
2024/01/17 14:06:21;;;;;;;33.73;13.87;;;;;;;;;;5134239;28;20185;-84
2024/01/17 14:08:48;;;;;;;21.17;12.27;;;;;;;;;;5134976;28;20207;-85
2024/01/17 14:11:15;;;;;;;24.33;12.90;;;;;;;;;;5135329;28;20246;-84
2024/01/17 14:13:44;;;;;;;25.47;13.63;;;;;;;;;;5132104;28;20197;-85
2024/01/17 14:16:15;;;;;;;25.07;13.63;;;;;;;;;;5130649;28;20229;-86
2024/01/17 14:18:45;;;;;;;25.13;13.60;;;;;;;;;;5121059;28;20197;-84
2024/01/17 14:21:13;;;;;;;34.07;15.83;;;;;;;;;;5115555;28;20209;-86
2024/01/17 14:23:41;;;;;;;31.27;13.90;;;;;;;;;;5116228;28;20193;-85
2024/01/17 14:26:10;;;;;;;20.73;11.47;;;;;;;;;;5121682;28;20204;-84
2024/01/17 14:28:37;;;;;;;20.53;10.10;;;;;;;;;;5121875;28;20230;-85
2024/01/17 14:31:05;;;;;;;19.43;11.03;;;;;;;;;;5119954;28;20716;-85
2024/01/17 14:33:32;;;;;;;17.83;11.20;;;;;;;;;;5128644;28;20212;-86
2024/01/17 14:36:07;;;;;;;18.63;11.23;;;;;;;;;;5133607;28;20196;-84
2024/01/17 14:38:34;;;;;;;22.40;10.93;;;;;;;;;;5125602;28;20562;-86
2024/01/17 14:41:05;;;;;;;18.30;11.47;;;;;;;;;;5118488;28;20257;-86
2024/01/17 14:43:36;;;;;;;26.50;13.77;;;;;;;;;;5118386;28;20213;-86
2024/01/17 14:46:06;;;;;;;19.20;12.30;;;;;;;;;;5125761;28;20252;-85
2024/01/17 14:48:34;;;;;;;20.40;11.27;;;;;;;;;;5134710;28;20405;-85